Time;durP1;ratioP1;P1;durP2;ratioP2;P2;SDS_P1;SDS_P2;PMS_P1;PMS_P2;Temp;Humidity;BMP_temperature;BMP_pressure;BME280_temperature;BME280_humidity;BME280_pressure;Samples;Min_cycle;Max_cycle;Signal;HPM_P1;HPM_P2
2022/11/29 00:01:10;;;;;;;58.70;33.90;;;;;;;3.65;81.71;102110.50;1667215;85;21009;-85
2022/11/29 00:03:36;;;;;;;59.80;32.45;;;;;;;3.64;81.73;102108.30;1639295;85;21924;-84
2022/11/29 00:06:12;;;;;;;60.67;31.75;;;;;;;3.64;81.69;102109.98;1662434;85;21394;-85
2022/11/29 00:08:40;;;;;;;56.02;31.27;;;;;;;3.63;81.70;102109.48;1661210;85;20977;-80
2022/11/29 00:11:11;;;;;;;57.83;31.77;;;;;;;3.64;81.67;102112.21;1657223;85;21762;-84
2022/11/29 00:13:38;;;;;;;57.03;31.45;;;;;;;3.64;81.67;102108.67;1656783;85;21099;-80
2022/11/29 00:16:07;;;;;;;58.92;31.35;;;;;;;3.61;81.58;102109.77;1661193;85;21030;-84
2022/11/29 00:18:34;;;;;;;57.95;31.55;;;;;;;3.59;81.62;102108.34;1657171;85;21088;-79
2022/11/29 00:21:08;;;;;;;53.60;30.57;;;;;;;3.61;81.58;102116.28;1661543;85;21013;-79
2022/11/29 00:23:35;;;;;;;54.65;29.80;;;;;;;3.59;81.57;102108.75;1663097;85;21738;-79
2022/11/29 00:26:05;;;;;;;59.23;31.20;;;;;;;3.55;81.52;102110.59;1663856;85;21020;-84
2022/11/29 00:28:31;;;;;;;56.42;30.45;;;;;;;3.52;81.51;102116.48;1658832;85;21388;-79
2022/11/29 00:30:58;;;;;;;54.10;29.67;;;;;;;3.48;81.47;102109.24;1663991;85;21479;-80
2022/11/29 00:33:25;;;;;;;58.45;29.75;;;;;;;3.46;81.54;102111.72;1656634;85;21046;-84
2022/11/29 00:35:52;;;;;;;56.10;30.12;;;;;;;3.44;81.52;102109.80;1651312;85;21720;-80
2022/11/29 00:38:19;;;;;;;54.13;28.80;;;;;;;3.42;81.53;102112.69;1660086;85;21056;-80
2022/11/29 00:40:51;;;;;;;53.65;29.60;;;;;;;3.41;81.58;102116.97;1655237;85;21018;-84
2022/11/29 00:43:18;;;;;;;61.10;32.50;;;;;;;3.42;81.61;102113.59;1662747;85;21048;-84
2022/11/29 00:45:44;;;;;;;53.70;28.67;;;;;;;3.42;81.56;102119.20;1665046;85;20996;-84
2022/11/29 00:48:11;;;;;;;58.73;30.20;;;;;;;3.41;81.59;102118.27;1668780;85;21962;-84
2022/11/29 00:50:38;;;;;;;53.87;28.47;;;;;;;3.42;81.57;102114.89;1662092;84;21092;-80
2022/11/29 00:53:05;;;;;;;58.80;28.70;;;;;;;3.43;81.59;102118.39;1664164;84;20984;-83
2022/11/29 00:55:32;;;;;;;58.42;29.75;;;;;;;3.42;81.49;102113.99;1663831;85;21026;-84
2022/11/29 00:57:58;;;;;;;49.10;28.25;;;;;;;3.40;81.49;102116.88;1659626;85;21087;-84
2022/11/29 01:00:25;;;;;;;55.67;28.00;;;;;;;3.40;81.53;102111.67;1665831;85;21681;-84
2022/11/29 01:02:52;;;;;;;52.73;28.62;;;;;;;3.41;81.53;102103.05;1664978;85;21840;-81
2022/11/29 01:05:19;;;;;;;52.90;29.15;;;;;;;3.41;81.54;102106.96;1661809;84;21015;-84
2022/11/29 01:07:45;;;;;;;54.73;27.80;;;;;;;3.43;81.54;102105.38;1660576;85;21011;-81
2022/11/29 01:10:12;;;;;;;52.40;27.07;;;;;;;3.43;81.49;102101.47;1667009;85;21649;-80
2022/11/29 01:12:39;;;;;;;54.73;27.25;;;;;;;3.43;81.42;102097.16;1665061;85;22569;-84
2022/11/29 01:15:07;;;;;;;55.10;27.55;;;;;;;3.40;81.36;102091.75;1662889;85;21067;-84
2022/11/29 01:17:37;;;;;;;49.53;27.15;;;;;;;3.40;81.37;102094.34;1661218;85;20995;-81
2022/11/29 01:20:06;;;;;;;47.53;25.55;;;;;;;3.38;81.32;102098.91;1662547;85;21008;-84
2022/11/29 01:22:34;;;;;;;53.23;26.17;;;;;;;3.37;81.33;102095.81;1660536;85;21053;-80
2022/11/29 01:25:01;;;;;;;46.73;25.45;;;;;;;3.37;81.37;102095.81;1658167;85;21729;-80
2022/11/29 01:27:28;;;;;;;46.02;24.67;;;;;;;3.38;81.25;102093.33;1670623;85;20992;-80
2022/11/29 01:29:55;;;;;;;48.38;26.60;;;;;;;3.40;81.21;102092.16;1663837;85;21122;-83
2022/11/29 01:32:23;;;;;;;45.10;25.17;;;;;;;3.37;81.10;102091.91;1662846;84;21593;-80
2022/11/29 01:34:50;;;;;;;43.92;24.82;;;;;;;3.34;81.10;102091.66;1667615;85;20989;-84
2022/11/29 01:37:16;;;;;;;43.30;24.87;;;;;;;3.34;81.06;102095.20;1660451;85;21935;-84
2022/11/29 01:39:43;;;;;;;43.17;23.27;;;;;;;3.35;81.11;102093.49;1665271;85;21481;-84
2022/11/29 01:42:11;;;;;;;44.67;25.60;;;;;;;3.36;81.09;102100.12;1661834;85;21004;-84
2022/11/29 01:45:06;;;;;;;44.18;24.40;;;;;;;3.35;81.05;102096.09;1668626;85;21588;-80
2022/11/29 01:47:33;;;;;;;42.93;24.20;;;;;;;3.36;81.08;102100.12;1665704;85;21018;-84
2022/11/29 01:50:00;;;;;;;45.55;25.25;;;;;;;3.35;81.00;102100.00;1667214;85;21724;-83
2022/11/29 01:52:29;;;;;;;44.60;23.27;;;;;;;3.33;80.95;102102.48;1633709;85;21515;-78
2022/11/29 01:54:57;;;;;;;45.90;25.50;;;;;;;3.31;80.97;102107.97;1657385;85;21043;-83
2022/11/29 01:57:24;;;;;;;49.55;25.52;;;;;;;3.28;80.89;102107.35;1655042;85;21428;-85
2022/11/29 01:59:55;;;;;;;50.05;25.30;;;;;;;3.26;80.91;102110.20;1661307;85;21395;-79
2022/11/29 02:02:39;;;;;;;43.30;24.23;;;;;;;3.25;81.00;102109.70;1648790;85;21691;-86
2022/11/29 02:05:06;;;;;;;;;;;;;;;3.28;81.03;102107.35;1663996;85;21407;-85
2022/11/29 02:07:33;;;;;;;45.05;24.12;;;;;;;3.28;80.93;102104.75;1658612;85;20190;-82
2022/11/29 02:10:00;;;;;;;41.77;23.98;;;;;;;3.26;80.88;102106.70;1656983;85;21149;-82
2022/11/29 02:12:57;;;;;;;43.87;24.00;;;;;;;3.25;80.90;102110.11;1627848;85;21065;-85
2022/11/29 02:15:44;;;;;;;43.42;24.35;;;;;;;3.26;80.96;102101.09;1662084;85;23045;-83
2022/11/29 02:18:35;;;;;;;39.85;24.55;;;;;;;3.28;80.89;102108.65;1661730;85;21083;-85
2022/11/29 02:21:31;;;;;;;42.83;25.08;;;;;;;3.28;80.85;102109.95;1653290;85;21075;-81
2022/11/29 02:24:30;;;;;;;45.08;24.45;;;;;;;3.29;80.82;102103.94;1658001;85;21400;-83
2022/11/29 02:27:26;;;;;;;45.25;23.87;;;;;;;3.26;80.77;102106.70;1660149;84;21103;-83
2022/11/29 02:30:07;;;;;;;49.35;27.45;;;;;;;3.28;80.86;102109.95;1640258;86;21781;-84
2022/11/29 02:33:14;;;;;;;45.15;26.12;;;;;;;3.29;80.80;102118.66;1631496;86;21080;-81
2022/11/29 02:36:06;;;;;;;50.10;25.65;;;;;;;3.28;80.77;102121.66;1625054;87;21098;-84
2022/11/29 02:38:49;;;;;;;43.45;25.17;;;;;;;3.24;80.59;102109.17;1646558;85;21085;-80
2022/11/29 02:41:30;;;;;;;44.27;24.18;;;;;;;3.22;80.65;102119.87;1659505;85;26546;-81
2022/11/29 02:44:17;;;;;;;44.35;23.92;;;;;;;3.22;80.61;102118.97;1653949;85;21815;-81
2022/11/29 02:47:15;;;;;;;38.80;21.37;;;;;;;3.19;80.40;102122.25;1659749;85;21071;-83
2022/11/29 02:50:04;;;;;;;40.88;20.95;;;;;;;3.09;80.29;102111.51;1664555;85;21525;-81
2022/11/29 02:52:45;;;;;;;36.03;20.50;;;;;;;3.12;80.28;102125.17;1651611;85;21053;-85
2022/11/29 02:55:26;;;;;;;37.08;21.17;;;;;;;3.11;80.20;102122.04;1659079;85;21045;-85
2022/11/29 02:58:28;;;;;;;32.78;19.85;;;;;;;3.11;80.18;102126.84;1622923;85;22783;-85
2022/11/29 03:01:12;;;;;;;34.27;20.15;;;;;;;3.10;80.15;102130.25;1654947;85;21051;-82
2022/11/29 03:03:57;;;;;;;33.05;18.92;;;;;;;3.08;79.95;102125.73;1646912;84;21039;-81
2022/11/29 03:06:44;;;;;;;35.00;20.20;;;;;;;3.05;79.87;102128.08;1665865;85;21092;-84
2022/11/29 03:09:40;;;;;;;39.05;21.37;;;;;;;3.02;79.93;102127.46;1618709;85;21159;-81
2022/11/29 03:12:34;;;;;;;32.65;19.20;;;;;;;3.03;79.89;102130.96;1665679;85;21779;-84
2022/11/29 03:15:24;;;;;;;37.63;20.82;;;;;;;3.05;79.85;102129.38;1668437;84;21588;-84
2022/11/29 03:18:34;;;;;;;37.93;19.07;;;;;;;3.04;79.72;102134.98;1656750;85;21058;-84
2022/11/29 03:21:21;;;;;;;31.33;19.73;;;;;;;3.03;79.64;102129.66;1651279;85;21118;-80
2022/11/29 03:23:57;;;;;;;30.90;18.87;;;;;;;2.92;79.39;102132.31;1641919;85;21134;-80
2022/11/29 03:26:41;;;;;;;34.40;19.12;;;;;;;2.94;79.44;102140.24;1669447;85;22641;-82
2022/11/29 03:29:36;;;;;;;33.30;18.52;;;;;;;2.91;79.35;102138.72;1660105;85;21059;-80
2022/11/29 03:32:23;;;;;;;37.17;18.52;;;;;;;2.89;79.32;102136.37;1662289;84;21084;-80
2022/11/29 03:35:11;;;;;;;31.93;19.32;;;;;;;2.86;79.23;102137.05;1662695;85;21069;-84
2022/11/29 03:38:01;;;;;;;31.52;18.77;;;;;;;2.84;79.22;102140.33;1622075;85;21114;-80
2022/11/29 03:40:41;;;;;;;34.35;19.92;;;;;;;2.84;79.26;102142.53;1602904;88;21789;-84
2022/11/29 03:43:22;;;;;;;33.58;19.95;;;;;;;2.83;79.18;102143.70;1601418;88;21160;-80
2022/11/29 03:46:06;;;;;;;36.45;20.70;;;;;;;2.82;79.16;102149.30;1593336;88;21085;-84
2022/11/29 03:48:36;;;;;;;;;;;;;;;2.81;79.03;102147.88;1660914;85;21388;-79
2022/11/29 03:51:08;;;;;;;36.23;20.37;;;;;;;2.80;79.04;102150.88;1660240;84;20561;-83
2022/11/29 03:54:04;;;;;;;31.12;19.02;;;;;;;2.78;78.90;102145.95;1615509;85;21209;-79
2022/11/29 03:56:33;;;;;;;32.88;19.30;;;;;;;2.78;78.95;102150.22;1625943;86;22091;-81
2022/11/29 03:59:28;;;;;;;30.20;19.00;;;;;;;2.77;78.91;102158.42;1615459;88;21090;-85
2022/11/29 04:02:29;;;;;;;33.55;20.75;;;;;;;2.77;78.94;102158.42;1609762;88;21461;-84
2022/11/29 04:05:34;;;;;;;31.30;20.02;;;;;;;2.75;78.82;102155.20;1596856;88;21131;-83
2022/11/29 04:08:42;;;;;;;34.58;20.25;;;;;;;2.73;78.69;102169.37;1619681;88;21796;-79
2022/11/29 04:11:53;;;;;;;33.58;20.25;;;;;;;2.71;78.72;102169.65;1614188;88;21182;-79
2022/11/29 04:14:36;;;;;;;32.60;20.32;;;;;;;2.73;78.67;102168.08;1625538;87;21112;-85
2022/11/29 04:17:42;;;;;;;31.00;20.55;;;;;;;2.73;78.57;102171.58;1599910;89;21099;-80
2022/11/29 04:20:50;;;;;;;30.82;19.40;;;;;;;2.65;78.51;102158.77;1603984;88;21093;-84
2022/11/29 04:23:40;;;;;;;33.48;21.25;;;;;;;2.70;78.43;102167.45;1606631;88;23540;-80
2022/11/29 04:26:35;;;;;;;32.20;20.52;;;;;;;2.66;78.31;102174.47;1577539;88;21064;-84
2022/11/29 04:29:32;;;;;;;34.85;21.55;;;;;;;2.65;78.35;102175.67;1607623;87;21087;-81
2022/11/29 04:32:21;;;;;;;31.62;20.70;;;;;;;2.62;78.32;102177.61;1618310;87;21090;-85
2022/11/29 04:35:16;;;;;;;31.48;19.82;;;;;;;2.62;78.28;102183.21;1616045;87;21120;-81
2022/11/29 04:38:12;;;;;;;32.63;20.48;;;;;;;2.61;78.24;102187.88;1616872;87;21789;-80
2022/11/29 04:41:07;;;;;;;33.65;21.62;;;;;;;2.59;78.25;102186.48;1619809;86;22267;-84
2022/11/29 04:43:59;;;;;;;31.40;19.80;;;;;;;2.62;78.27;102183.21;1661952;84;21067;-83
2022/11/29 04:46:52;;;;;;;28.90;19.10;;;;;;;2.61;78.21;102185.28;1657801;85;21547;-80
2022/11/29 04:49:58;;;;;;;31.37;20.45;;;;;;;2.62;78.18;102194.51;1659987;85;21069;-81
2022/11/29 04:52:48;;;;;;;32.25;21.07;;;;;;;2.60;78.07;102199.08;1666224;84;21764;-84
2022/11/29 04:55:38;;;;;;;35.83;21.20;;;;;;;2.58;78.07;102204.55;1664817;85;21132;-81
2022/11/29 04:58:42;;;;;;;32.93;21.60;;;;;;;2.55;78.01;102200.00;1659694;85;21084;-83
2022/11/29 05:01:39;;;;;;;34.40;21.15;;;;;;;2.53;78.03;102201.20;1657808;85;21140;-83
2022/11/29 05:04:20;;;;;;;31.37;21.57;;;;;;;2.49;77.96;102204.30;1656616;85;21055;-89
2022/11/29 05:07:07;;;;;;;35.50;22.07;;;;;;;2.47;77.96;102202.38;1663869;85;21771;-89
2022/11/29 05:10:04;;;;;;;32.15;21.57;;;;;;;2.46;77.98;102207.05;1663516;85;21123;-87
2022/11/29 05:12:54;;;;;;;37.05;22.42;;;;;;;2.47;78.02;102207.17;1660883;85;21530;-80
2022/11/29 05:15:44;;;;;;;42.40;22.10;;;;;;;2.49;78.06;102206.00;1663981;84;21650;-81
2022/11/29 05:18:38;;;;;;;34.00;22.35;;;;;;;2.48;77.96;102209.00;1659517;85;22193;-83
2022/11/29 05:21:10;;;;;;;;;;;;;;;2.47;77.93;102203.28;1663058;85;21783;-82
2022/11/29 05:24:26;;;;;;;35.48;22.48;;;;;;;2.44;77.92;102212.52;1634370;85;20613;-81
2022/11/29 05:27:28;;;;;;;33.40;21.65;;;;;;;2.45;77.95;102213.94;1662988;85;21085;-83
2022/11/29 05:30:17;;;;;;;39.30;24.20;;;;;;;2.44;77.95;102222.55;1628672;87;21095;-85
2022/11/29 05:33:11;;;;;;;33.90;23.12;;;;;;;2.42;77.93;102216.31;1661069;85;21632;-83
2022/11/29 05:35:53;;;;;;;;;;;;;;;2.42;77.95;102220.58;1664231;85;21833;-82
2022/11/29 05:38:56;;;;;;;35.03;23.10;;;;;;;2.45;78.01;102224.34;1616308;88;20686;-81
2022/11/29 05:41:28;;;;;;;38.53;23.45;;;;;;;2.45;78.00;102229.94;1600248;88;21061;-83
2022/11/29 05:44:12;;;;;;;35.17;23.10;;;;;;;2.45;78.03;102230.84;1603043;88;21167;-77
2022/11/29 05:47:00;;;;;;;33.67;22.70;;;;;;;2.47;78.05;102228.37;1602576;88;21114;-85
2022/11/29 05:50:01;;;;;;;32.88;22.70;;;;;;;2.51;78.08;102231.73;1611549;88;21774;-85
2022/11/29 05:53:06;;;;;;;36.80;22.95;;;;;;;2.48;77.99;102232.80;1603114;88;21554;-81
2022/11/29 05:55:47;;;;;;;36.58;22.65;;;;;;;2.47;78.01;102234.47;1652914;84;21067;-81
2022/11/29 05:58:28;;;;;;;35.28;22.75;;;;;;;2.46;77.96;102233.97;1641786;87;21044;-83
2022/11/29 06:01:15;;;;;;;35.58;22.27;;;;;;;2.45;77.95;102237.34;1622349;85;21104;-80
2022/11/29 06:04:01;;;;;;;38.02;23.10;;;;;;;2.46;78.02;102242.13;1629636;86;22577;-83
2022/11/29 06:06:45;;;;;;;38.78;22.73;;;;;;;2.46;77.99;102240.47;1642596;86;21095;-84
2022/11/29 06:09:35;;;;;;;36.88;24.23;;;;;;;2.45;78.00;102239.94;1641910;87;21080;-83
2022/11/29 06:12:13;;;;;;;38.85;24.43;;;;;;;2.42;78.02;102242.67;1635431;86;21083;-84
2022/11/29 06:15:18;;;;;;;36.58;23.83;;;;;;;2.38;77.95;102243.20;1637914;87;21114;-85
2022/11/29 06:17:54;;;;;;;40.58;23.07;;;;;;;2.40;78.12;102244.23;1634249;86;21172;-85
2022/11/29 06:20:47;;;;;;;38.17;23.75;;;;;;;2.43;78.11;102244.50;1645636;85;21100;-84
2022/11/29 06:23:23;;;;;;;39.53;24.37;;;;;;;2.43;78.07;102246.70;1640313;87;21143;-84
2022/11/29 06:26:03;;;;;;;34.83;22.77;;;;;;;2.41;77.98;102248.27;1638870;85;21129;-84
2022/11/29 06:29:22;;;;;;;38.53;24.00;;;;;;;2.38;77.95;102249.30;1639131;87;21375;-84
2022/11/29 06:32:07;;;;;;;33.45;21.62;;;;;;;2.40;78.01;102250.34;1639523;87;21873;-86
2022/11/29 06:34:54;;;;;;;35.83;24.02;;;;;;;2.42;77.98;102256.59;1625460;86;21692;-85
2022/11/29 06:37:31;;;;;;;35.48;23.90;;;;;;;2.39;77.84;102256.73;1641580;87;21260;-83
2022/11/29 06:40:00;;;;;;;35.43;23.20;;;;;;;2.39;77.86;102260.23;1644413;86;21365;-80
2022/11/29 06:42:28;;;;;;;33.18;21.25;;;;;;;2.32;77.79;102261.41;1638754;86;21126;-79
2022/11/29 06:44:55;;;;;;;32.55;21.12;;;;;;;2.30;77.74;102256.87;1635378;87;21944;-80
2022/11/29 06:47:43;;;;;;;33.50;22.17;;;;;;;2.27;77.74;102261.44;1637828;86;21273;-80
2022/11/29 06:50:23;;;;;;;34.05;22.82;;;;;;;2.27;77.79;102265.70;1613960;85;21151;-80
2022/11/29 06:53:26;;;;;;;31.87;21.10;;;;;;;2.28;77.80;102267.13;1635292;85;21094;-82
2022/11/29 06:56:16;;;;;;;35.75;22.82;;;;;;;2.28;77.78;102270.13;1632540;86;21594;-85
2022/11/29 06:59:26;;;;;;;30.43;21.82;;;;;;;2.33;77.92;102271.03;1672092;85;22652;-83
2022/11/29 07:02:06;;;;;;;33.25;22.25;;;;;;;2.34;77.81;102268.93;1638992;86;21098;-80
2022/11/29 07:04:50;;;;;;;34.13;21.15;;;;;;;2.35;77.71;102272.46;1612002;86;21099;-83
2022/11/29 07:07:21;;;;;;;32.28;21.90;;;;;;;2.30;77.72;102269.86;1655763;85;21134;-80
2022/11/29 07:09:50;;;;;;;36.45;23.32;;;;;;;2.31;77.79;102274.30;1637839;86;21142;-81
2022/11/29 07:12:18;;;;;;;32.73;21.48;;;;;;;2.32;77.75;102279.99;1642422;86;21801;-85
2022/11/29 07:14:45;;;;;;;36.05;22.73;;;;;;;2.31;77.76;102279.09;1670194;85;21064;-85
2022/11/29 07:17:24;;;;;;;35.58;23.15;;;;;;;2.32;77.82;102282.19;1666213;85;21060;-81
2022/11/29 07:20:02;;;;;;;36.17;22.62;;;;;;;2.33;77.74;102280.52;1669276;85;21072;-81
2022/11/29 07:23:04;;;;;;;34.05;23.00;;;;;;;2.32;77.77;102284.79;1644176;85;21068;-83
2022/11/29 07:25:57;;;;;;;35.65;22.98;;;;;;;2.30;77.68;102282.86;1671189;85;21778;-84
2022/11/29 07:29:03;;;;;;;35.33;23.85;;;;;;;2.30;77.74;102286.75;1667759;85;21044;-81
2022/11/29 07:31:59;;;;;;;37.78;22.60;;;;;;;2.28;77.67;102286.62;1646732;84;21139;-81
2022/11/29 07:34:43;;;;;;;33.98;22.42;;;;;;;2.30;77.85;102290.25;1649163;85;21083;-85
2022/11/29 07:37:29;;;;;;;;;;;;;;;2.32;77.77;102288.69;1662907;85;21115;-84
2022/11/29 07:40:16;;;;;;;34.95;22.85;;;;;;;2.30;77.74;102286.75;1667681;85;21858;-83
2022/11/29 07:43:17;;;;;;;39.75;24.98;;;;;;;2.27;77.74;102287.42;1642623;86;21097;-82
2022/11/29 07:45:44;;;;;;;38.45;24.92;;;;;;;2.29;77.84;102288.82;1644237;86;21049;-80
2022/11/29 07:48:11;;;;;;;34.98;23.27;;;;;;;2.33;77.91;102289.22;1641931;85;21001;-83
2022/11/29 07:50:38;;;;;;;37.08;24.27;;;;;;;2.36;77.89;102295.05;1650361;85;21029;-80
2022/11/29 07:53:05;;;;;;;37.17;25.02;;;;;;;2.38;77.84;102292.19;1639300;85;21742;-82
2022/11/29 07:55:32;;;;;;;36.00;23.85;;;;;;;2.38;77.77;102293.48;1637847;85;20988;-82
2022/11/29 07:58:00;;;;;;;37.80;24.77;;;;;;;2.42;77.83;102297.25;1619738;87;21795;-81
2022/11/29 08:00:26;;;;;;;51.48;32.58;;;;;;;2.45;77.86;102291.91;1624556;86;21482;-83
2022/11/29 08:02:55;;;;;;;37.20;26.17;;;;;;;2.49;77.89;102293.98;1627261;86;21011;-83
2022/11/29 08:05:22;;;;;;;44.73;33.13;;;;;;;2.55;77.91;102288.38;1615835;87;21708;-81
2022/11/29 08:07:50;;;;;;;40.17;27.90;;;;;;;2.58;77.72;102286.44;1630704;86;21016;-84
2022/11/29 08:10:17;;;;;;;36.42;24.32;;;;;;;2.58;77.69;102291.63;1629540;86;21079;-84
2022/11/29 08:12:47;;;;;;;39.03;24.87;;;;;;;2.57;77.63;102290.70;1630131;86;21376;-84
2022/11/29 08:15:14;;;;;;;40.17;25.02;;;;;;;2.52;77.56;102297.23;1629004;86;21107;-81
2022/11/29 08:17:41;;;;;;;42.73;26.30;;;;;;;2.47;77.54;102291.64;1628303;86;22372;-84
2022/11/29 08:20:08;;;;;;;38.38;25.15;;;;;;;2.45;77.61;102293.61;1633389;86;20997;-82
2022/11/29 08:22:35;;;;;;;35.60;24.45;;;;;;;2.46;77.68;102292.81;1629149;87;21003;-81
2022/11/29 08:25:01;;;;;;;51.33;34.43;;;;;;;2.47;77.68;102291.64;1632479;86;21526;-84
2022/11/29 08:27:28;;;;;;;40.58;24.90;;;;;;;2.48;77.73;102292.58;1624804;86;21075;-81
2022/11/29 08:29:55;;;;;;;36.38;24.63;;;;;;;2.50;77.75;102282.81;1626479;86;21832;-84
2022/11/29 08:32:22;;;;;;;37.70;24.90;;;;;;;2.57;77.78;102292.00;1631290;86;21091;-81
2022/11/29 08:34:48;;;;;;;38.02;24.80;;;;;;;2.56;77.61;102290.61;1631668;86;21095;-82
2022/11/29 08:37:15;;;;;;;35.68;23.80;;;;;;;2.55;77.63;102296.57;1629083;86;21134;-81
2022/11/29 08:39:42;;;;;;;37.48;23.92;;;;;;;2.58;77.69;102289.03;1625739;87;21057;-81
2022/11/29 08:42:09;;;;;;;39.30;25.00;;;;;;;2.62;77.76;102295.00;1627029;87;21881;-84
2022/11/29 08:44:36;;;;;;;36.98;24.30;;;;;;;2.61;77.59;102293.16;1631247;87;21136;-84
2022/11/29 08:50:02;;;;;;;38.60;23.92;;;;;;;2.58;77.58;102293.84;1631387;86;21095;-81
2022/11/29 08:55:22;;;;;;;40.65;23.90;;;;;;;2.61;77.59;102290.56;1598440;86;21995;-83
2022/11/29 08:57:49;;;;;;;39.20;24.63;;;;;;;2.64;77.61;102286.93;1575829;87;21065;-83
2022/11/29 09:00:17;;;;;;;41.77;25.15;;;;;;;2.66;77.65;102282.76;1599563;87;21106;-83
2022/11/29 09:02:46;;;;;;;44.77;25.20;;;;;;;2.67;77.57;102286.79;1594734;87;21546;-85
2022/11/29 09:05:14;;;;;;;39.25;24.70;;;;;;;2.71;77.67;102278.85;1598785;87;21125;-84
2022/11/29 09:07:41;;;;;;;41.23;26.70;;;;;;;2.74;77.66;102284.31;1601959;87;22729;-85
2022/11/29 09:10:09;;;;;;;43.48;27.82;;;;;;;2.71;77.50;102278.85;1596863;87;21095;-81
2022/11/29 09:12:36;;;;;;;45.15;27.58;;;;;;;2.73;77.62;102283.38;1611432;87;21667;-80
2022/11/29 09:15:07;;;;;;;41.65;26.25;;;;;;;2.72;77.58;102279.34;1598784;87;22198;-81
2022/11/29 09:17:34;;;;;;;45.90;27.55;;;;;;;2.72;77.57;102282.88;1596752;87;21096;-84
2022/11/29 09:20:01;;;;;;;52.93;30.90;;;;;;;2.74;77.62;102288.21;1588253;87;21787;-84
2022/11/29 09:22:28;;;;;;;47.00;29.23;;;;;;;2.74;77.55;102288.21;1599650;87;21071;-81
2022/11/29 09:24:55;;;;;;;45.23;27.45;;;;;;;2.75;77.63;102285.21;1611559;87;21071;-84
2022/11/29 09:27:22;;;;;;;46.15;26.50;;;;;;;2.79;77.67;102284.67;1607210;87;21525;-83
2022/11/29 09:29:48;;;;;;;45.50;27.82;;;;;;;2.83;77.70;102287.63;1608960;87;21108;-81
2022/11/29 09:32:15;;;;;;;45.88;27.22;;;;;;;2.89;77.75;102284.25;1587090;87;22658;-83
2022/11/29 09:34:42;;;;;;;47.67;28.05;;;;;;;2.97;77.73;102287.45;1604515;87;21023;-83
2022/11/29 09:37:08;;;;;;;45.25;27.65;;;;;;;3.01;77.64;102288.61;1601614;87;21608;-80
2022/11/29 09:39:35;;;;;;;45.15;28.02;;;;;;;3.04;77.58;102281.03;1599537;87;21055;-83
2022/11/29 09:42:28;;;;;;;46.37;26.82;;;;;;;3.03;77.55;102277.94;1598006;87;21067;-83
2022/11/29 09:45:08;;;;;;;49.33;29.72;;;;;;;3.04;77.48;102278.43;1631841;86;21764;-83
2022/11/29 09:47:57;;;;;;;45.48;28.02;;;;;;;3.02;77.47;102275.73;1591948;88;20994;-83
2022/11/29 09:50:42;;;;;;;51.85;29.00;;;;;;;3.05;77.50;102275.06;1609249;87;21112;-83
2022/11/29 09:53:36;;;;;;;50.70;28.05;;;;;;;3.07;77.48;102272.19;1589405;87;21014;-80
2022/11/29 09:56:30;;;;;;;45.70;28.55;;;;;;;3.03;77.33;102273.63;1600968;88;21063;-81
2022/11/29 09:59:04;;;;;;;49.13;29.52;;;;;;;3.03;77.42;102276.23;1661772;85;21861;-83
2022/11/29 10:01:44;;;;;;;47.50;28.87;;;;;;;3.05;77.42;102280.27;1665039;85;20997;-83
2022/11/29 10:04:18;;;;;;;53.83;29.95;;;;;;;3.11;77.50;102284.25;1672010;84;21005;-83
2022/11/29 10:07:02;;;;;;;46.83;29.55;;;;;;;3.14;77.40;102277.09;1668566;84;20993;-83
2022/11/29 10:09:40;;;;;;;48.78;30.02;;;;;;;3.18;77.39;102280.86;1627683;86;21023;-81
2022/11/29 10:12:17;;;;;;;52.08;31.00;;;;;;;3.21;77.45;102283.31;1670617;84;22367;-81
2022/11/29 10:14:55;;;;;;;54.85;32.30;;;;;;;3.22;77.27;102282.91;1665177;84;21041;-81
2022/11/29 10:17:30;;;;;;;54.35;32.28;;;;;;;3.23;77.23;102282.09;1646334;85;21577;-81
2022/11/29 10:20:02;;;;;;;54.33;32.63;;;;;;;3.19;77.04;102279.68;1667483;85;20995;-81
2022/11/29 10:23:01;;;;;;;54.40;32.40;;;;;;;3.18;77.05;102284.76;1669370;85;21046;-81
2022/11/29 10:25:45;;;;;;;52.40;30.32;;;;;;;3.16;77.04;102284.63;1670694;85;21828;-81
2022/11/29 10:28:16;;;;;;;57.90;33.98;;;;;;;3.17;76.99;102286.83;1670355;85;21044;-83
2022/11/29 10:30:42;;;;;;;56.58;33.25;;;;;;;3.18;77.07;102280.86;1667822;85;20980;-81
2022/11/29 10:33:33;;;;;;;51.80;30.23;;;;;;;3.20;77.03;102289.69;1663734;85;21458;-84
2022/11/29 10:36:03;;;;;;;53.38;31.45;;;;;;;3.21;77.01;102283.31;1667335;85;21031;-83
2022/11/29 10:38:30;;;;;;;59.25;33.30;;;;;;;3.24;76.98;102294.34;1640554;85;21727;-81
2022/11/29 10:41:10;;;;;;;57.15;33.33;;;;;;;3.22;76.96;102287.70;1660854;85;21360;-83
2022/11/29 10:43:37;;;;;;;54.67;32.00;;;;;;;3.20;76.92;102289.28;1651475;85;20988;-81
2022/11/29 10:46:05;;;;;;;55.10;32.50;;;;;;;3.20;76.86;102288.38;1661947;85;21553;-83
2022/11/29 10:48:32;;;;;;;60.30;33.95;;;;;;;3.17;76.90;102286.83;1646419;86;21028;-81
2022/11/29 10:50:59;;;;;;;66.20;38.40;;;;;;;3.15;76.88;102282.80;1638448;86;22436;-81
2022/11/29 10:53:34;;;;;;;54.77;32.83;;;;;;;3.18;76.93;102291.26;1662714;84;20988;-81
2022/11/29 10:56:15;;;;;;;52.60;33.13;;;;;;;3.22;76.99;102294.61;1664662;85;21448;-83
2022/11/29 10:59:06;;;;;;;56.37;33.02;;;;;;;3.22;76.80;102294.61;1660804;83;21552;-81
2022/11/29 11:01:34;;;;;;;51.33;32.78;;;;;;;3.21;76.81;102293.72;1650118;85;20996;-85
2022/11/29 11:04:03;;;;;;;55.25;34.92;;;;;;;3.21;76.72;102295.02;1644137;85;21725;-84
2022/11/29 11:06:47;;;;;;;51.50;31.95;;;;;;;3.18;76.76;102296.06;1644435;86;21103;-84
2022/11/29 11:09:28;;;;;;;51.95;32.17;;;;;;;3.19;76.82;102293.99;1643468;86;21510;-85
2022/11/29 11:12:00;;;;;;;54.08;32.17;;;;;;;3.22;76.83;102295.91;1642593;86;21039;-81
2022/11/29 11:14:33;;;;;;;59.42;33.75;;;;;;;3.22;76.82;102292.02;1646549;85;20996;-84
2022/11/29 11:17:29;;;;;;;54.40;32.80;;;;;;;3.26;76.80;102297.97;1626910;86;21808;-84
2022/11/29 11:20:00;;;;;;;54.98;33.85;;;;;;;3.27;76.81;102294.59;1645911;85;20991;-84
2022/11/29 11:22:28;;;;;;;50.45;30.80;;;;;;;3.29;76.78;102295.22;1641392;85;21007;-81
2022/11/29 11:25:23;;;;;;;48.13;31.85;;;;;;;3.33;76.74;102300.68;1648722;85;21068;-84
2022/11/29 11:27:50;;;;;;;48.00;32.23;;;;;;;3.34;76.70;102293.37;1648260;85;21004;-84
2022/11/29 11:30:26;;;;;;;48.78;31.15;;;;;;;3.34;76.62;102295.97;1640565;85;21750;-81
2022/11/29 11:33:28;;;;;;;50.00;30.97;;;;;;;3.31;76.54;102289.73;1635348;85;20980;-81
2022/11/29 11:36:21;;;;;;;52.90;33.53;;;;;;;3.31;76.51;102295.34;1636407;86;21043;-81
2022/11/29 11:39:11;;;;;;;49.88;31.70;;;;;;;3.30;76.53;102294.45;1639956;86;21585;-84
2022/11/29 11:44:39;;;;;;;49.65;30.80;;;;;;;3.28;76.51;102297.33;1668601;85;21728;-84
2022/11/29 11:47:15;;;;;;;47.95;30.85;;;;;;;3.27;76.46;102303.30;1670320;84;21023;-84
2022/11/29 11:50:06;;;;;;;47.05;29.32;;;;;;;3.29;76.50;102304.73;1671478;84;20982;-84
2022/11/29 11:52:52;;;;;;;47.35;30.75;;;;;;;3.30;76.49;102297.05;1668803;85;21030;-81
2022/11/29 11:55:24;;;;;;;50.48;31.15;;;;;;;3.29;76.45;102296.92;1673122;85;20999;-81
2022/11/29 11:58:16;;;;;;;49.93;31.27;;;;;;;3.31;76.53;102295.34;1671844;84;21087;-81
2022/11/29 12:01:24;;;;;;;47.08;31.15;;;;;;;3.35;76.56;102297.80;1665630;85;21020;-81
2022/11/29 12:04:02;;;;;;;44.88;28.85;;;;;;;3.34;76.46;102303.41;1671969;85;21809;-84
2022/11/29 12:06:37;;;;;;;51.77;32.25;;;;;;;3.36;76.47;102306.10;1668267;85;21024;-81
2022/11/29 12:09:29;;;;;;;48.50;29.72;;;;;;;3.33;76.40;102306.78;1663983;85;21074;-81
2022/11/29 12:12:08;;;;;;;49.45;29.87;;;;;;;3.28;76.35;102303.83;1662403;85;22406;-81
2022/11/29 12:14:59;;;;;;;53.42;31.25;;;;;;;3.25;76.32;102307.88;1642441;86;21033;-84
2022/11/29 12:17:34;;;;;;;55.12;31.90;;;;;;;3.22;76.36;102312.43;1670586;85;21043;-84
2022/11/29 12:20:27;;;;;;;57.88;33.67;;;;;;;3.21;76.35;102311.00;1641450;85;21004;-81
2022/11/29 12:23:14;;;;;;;53.45;34.13;;;;;;;3.22;76.45;102310.23;1645350;85;21075;-81
2022/11/29 12:26:03;;;;;;;46.63;31.60;;;;;;;3.23;76.46;102317.23;1645014;85;21385;-83